sensor_id;sensor_type;location;lat;lon;timestamp;P1;durP1;ratioP1;P2;durP2;ratioP2
84231;SDS011;74368;48.022;13.830;2024-01-15T00:05:30;35.08;;;13.85;;
84231;SDS011;74368;48.022;13.830;2024-01-15T00:08:06;45.80;;;13.38;;
84231;SDS011;74368;48.022;13.830;2024-01-15T00:10:36;41.75;;;16.00;;
84231;SDS011;74368;48.022;13.830;2024-01-15T00:13:06;38.47;;;15.15;;
84231;SDS011;74368;48.022;13.830;2024-01-15T00:15:45;47.25;;;14.35;;
84231;SDS011;74368;48.022;13.830;2024-01-15T00:27:50;29.85;;;10.93;;
84231;SDS011;74368;48.022;13.830;2024-01-15T00:30:18;37.03;;;12.20;;
84231;SDS011;74368;48.022;13.830;2024-01-15T00:32:56;29.67;;;10.93;;
84231;SDS011;74368;48.022;13.830;2024-01-15T00:49:14;22.48;;;9.32;;
84231;SDS011;74368;48.022;13.830;2024-01-15T00:51:50;27.20;;;9.63;;
84231;SDS011;74368;48.022;13.830;2024-01-15T00:54:18;22.55;;;8.55;;
84231;SDS011;74368;48.022;13.830;2024-01-15T00:56:43;22.25;;;9.05;;
84231;SDS011;74368;48.022;13.830;2024-01-15T00:59:08;24.80;;;9.77;;
84231;SDS011;74368;48.022;13.830;2024-01-15T01:01:35;24.20;;;10.80;;
84231;SDS011;74368;48.022;13.830;2024-01-15T01:07:42;21.33;;;8.05;;
84231;SDS011;74368;48.022;13.830;2024-01-15T01:10:37;18.38;;;7.82;;
84231;SDS011;74368;48.022;13.830;2024-01-15T01:13:03;25.15;;;6.45;;
84231;SDS011;74368;48.022;13.830;2024-01-15T01:15:31;13.05;;;6.60;;
84231;SDS011;74368;48.022;13.830;2024-01-15T01:24:38;14.02;;;6.40;;
84231;SDS011;74368;48.022;13.830;2024-01-15T01:27:04;18.75;;;6.70;;
84231;SDS011;74368;48.022;13.830;2024-01-15T01:29:32;17.27;;;6.57;;
84231;SDS011;74368;48.022;13.830;2024-01-15T01:31:57;11.63;;;5.70;;
84231;SDS011;74368;48.022;13.830;2024-01-15T01:34:22;13.63;;;6.25;;
84231;SDS011;74368;48.022;13.830;2024-01-15T01:36:48;12.50;;;5.57;;
84231;SDS011;74368;48.022;13.830;2024-01-15T01:39:13;16.02;;;6.78;;
84231;SDS011;74368;48.022;13.830;2024-01-15T01:41:39;15.98;;;6.05;;
84231;SDS011;74368;48.022;13.830;2024-01-15T01:44:05;11.65;;;6.03;;
84231;SDS011;74368;48.022;13.830;2024-01-15T01:46:30;11.63;;;5.53;;
84231;SDS011;74368;48.022;13.830;2024-01-15T01:48:58;12.00;;;6.20;;
84231;SDS011;74368;48.022;13.830;2024-01-15T01:51:28;11.88;;;5.53;;
84231;SDS011;74368;48.022;13.830;2024-01-15T01:53:59;12.90;;;5.35;;
84231;SDS011;74368;48.022;13.830;2024-01-15T01:56:25;12.38;;;5.30;;
84231;SDS011;74368;48.022;13.830;2024-01-15T01:58:51;11.05;;;4.95;;
84231;SDS011;74368;48.022;13.830;2024-01-15T02:01:17;10.02;;;4.47;;
84231;SDS011;74368;48.022;13.830;2024-01-15T02:03:43;12.20;;;4.95;;
84231;SDS011;74368;48.022;13.830;2024-01-15T02:10:00;10.95;;;4.95;;
84231;SDS011;74368;48.022;13.830;2024-01-15T02:12:28;10.82;;;4.90;;
84231;SDS011;74368;48.022;13.830;2024-01-15T02:14:53;10.27;;;4.68;;
84231;SDS011;74368;48.022;13.830;2024-01-15T02:17:18;10.00;;;4.40;;
84231;SDS011;74368;48.022;13.830;2024-01-15T02:19:44;8.90;;;4.57;;
84231;SDS011;74368;48.022;13.830;2024-01-15T02:22:09;9.27;;;4.75;;
84231;SDS011;74368;48.022;13.830;2024-01-15T02:24:37;11.55;;;5.15;;
84231;SDS011;74368;48.022;13.830;2024-01-15T02:27:03;10.70;;;4.90;;
84231;SDS011;74368;48.022;13.830;2024-01-15T02:29:30;12.63;;;4.25;;
84231;SDS011;74368;48.022;13.830;2024-01-15T02:31:58;9.30;;;4.20;;
84231;SDS011;74368;48.022;13.830;2024-01-15T02:44:22;8.27;;;4.28;;
84231;SDS011;74368;48.022;13.830;2024-01-15T02:46:48;8.75;;;4.40;;
84231;SDS011;74368;48.022;13.830;2024-01-15T02:49:13;8.20;;;4.45;;
84231;SDS011;74368;48.022;13.830;2024-01-15T02:51:40;12.55;;;5.13;;
84231;SDS011;74368;48.022;13.830;2024-01-15T02:54:06;7.68;;;4.38;;
84231;SDS011;74368;48.022;13.830;2024-01-15T02:56:31;6.25;;;3.83;;
84231;SDS011;74368;48.022;13.830;2024-01-15T02:58:56;10.05;;;4.65;;
84231;SDS011;74368;48.022;13.830;2024-01-15T03:01:27;9.52;;;4.13;;
84231;SDS011;74368;48.022;13.830;2024-01-15T03:03:52;10.23;;;4.38;;
84231;SDS011;74368;48.022;13.830;2024-01-15T03:06:23;5.30;;;3.50;;
84231;SDS011;74368;48.022;13.830;2024-01-15T03:12:16;5.93;;;2.83;;
84231;SDS011;74368;48.022;13.830;2024-01-15T03:14:52;6.53;;;3.58;;
84231;SDS011;74368;48.022;13.830;2024-01-15T03:19:57;5.38;;;3.30;;
84231;SDS011;74368;48.022;13.830;2024-01-15T03:22:22;7.15;;;3.47;;
84231;SDS011;74368;48.022;13.830;2024-01-15T03:24:47;7.70;;;3.38;;
84231;SDS011;74368;48.022;13.830;2024-01-15T03:27:13;5.95;;;3.13;;
84231;SDS011;74368;48.022;13.830;2024-01-15T03:29:40;8.05;;;3.90;;
84231;SDS011;74368;48.022;13.830;2024-01-15T03:32:08;8.43;;;3.58;;
84231;SDS011;74368;48.022;13.830;2024-01-15T03:34:41;8.55;;;4.25;;
84231;SDS011;74368;48.022;13.830;2024-01-15T03:37:49;6.22;;;3.38;;
84231;SDS011;74368;48.022;13.830;2024-01-15T03:40:14;5.47;;;2.88;;
84231;SDS011;74368;48.022;13.830;2024-01-15T03:42:40;6.40;;;3.05;;
84231;SDS011;74368;48.022;13.830;2024-01-15T03:45:08;6.55;;;3.60;;
84231;SDS011;74368;48.022;13.830;2024-01-15T03:47:33;8.10;;;3.70;;
84231;SDS011;74368;48.022;13.830;2024-01-15T03:50:06;5.65;;;3.00;;
84231;SDS011;74368;48.022;13.830;2024-01-15T03:52:31;5.93;;;3.17;;
84231;SDS011;74368;48.022;13.830;2024-01-15T03:54:57;9.00;;;4.20;;
84231;SDS011;74368;48.022;13.830;2024-01-15T03:57:22;7.32;;;3.80;;
84231;SDS011;74368;48.022;13.830;2024-01-15T03:59:48;7.05;;;3.28;;
84231;SDS011;74368;48.022;13.830;2024-01-15T04:02:13;5.32;;;3.17;;
84231;SDS011;74368;48.022;13.830;2024-01-15T04:04:42;6.75;;;3.30;;
84231;SDS011;74368;48.022;13.830;2024-01-15T04:07:08;10.80;;;3.58;;
84231;SDS011;74368;48.022;13.830;2024-01-15T04:09:35;8.15;;;3.30;;
84231;SDS011;74368;48.022;13.830;2024-01-15T04:12:02;5.80;;;3.72;;
84231;SDS011;74368;48.022;13.830;2024-01-15T04:14:28;8.48;;;3.30;;
84231;SDS011;74368;48.022;13.830;2024-01-15T04:16:53;6.97;;;3.75;;
84231;SDS011;74368;48.022;13.830;2024-01-15T04:28:47;7.03;;;3.60;;
84231;SDS011;74368;48.022;13.830;2024-01-15T04:31:24;6.10;;;3.05;;
84231;SDS011;74368;48.022;13.830;2024-01-15T04:37:16;6.97;;;3.45;;
84231;SDS011;74368;48.022;13.830;2024-01-15T04:49:39;6.35;;;3.53;;
84231;SDS011;74368;48.022;13.830;2024-01-15T04:52:04;5.18;;;2.90;;
84231;SDS011;74368;48.022;13.830;2024-01-15T04:54:30;8.57;;;3.47;;
84231;SDS011;74368;48.022;13.830;2024-01-15T04:56:55;7.63;;;3.88;;
84231;SDS011;74368;48.022;13.830;2024-01-15T04:59:20;6.13;;;3.75;;
84231;SDS011;74368;48.022;13.830;2024-01-15T05:01:46;5.68;;;3.30;;
84231;SDS011;74368;48.022;13.830;2024-01-15T05:04:13;7.72;;;3.38;;
84231;SDS011;74368;48.022;13.830;2024-01-15T05:06:39;6.90;;;3.20;;
84231;SDS011;74368;48.022;13.830;2024-01-15T05:09:04;7.82;;;3.33;;
84231;SDS011;74368;48.022;13.830;2024-01-15T05:11:29;8.35;;;3.55;;
84231;SDS011;74368;48.022;13.830;2024-01-15T05:13:55;6.60;;;3.70;;
84231;SDS011;74368;48.022;13.830;2024-01-15T05:16:20;5.63;;;2.90;;
84231;SDS011;74368;48.022;13.830;2024-01-15T05:18:45;6.28;;;3.20;;
84231;SDS011;74368;48.022;13.830;2024-01-15T05:21:11;7.00;;;3.13;;
84231;SDS011;74368;48.022;13.830;2024-01-15T05:23:36;8.35;;;3.83;;
84231;SDS011;74368;48.022;13.830;2024-01-15T05:26:01;8.20;;;3.50;;
84231;SDS011;74368;48.022;13.830;2024-01-15T05:28:27;7.63;;;4.13;;
84231;SDS011;74368;48.022;13.830;2024-01-15T05:30:52;7.43;;;3.80;;
84231;SDS011;74368;48.022;13.830;2024-01-15T05:33:19;5.22;;;3.30;;
84231;SDS011;74368;48.022;13.830;2024-01-15T05:35:44;6.20;;;3.40;;
84231;SDS011;74368;48.022;13.830;2024-01-15T05:38:10;7.97;;;3.53;;
84231;SDS011;74368;48.022;13.830;2024-01-15T05:40:35;7.82;;;4.28;;
84231;SDS011;74368;48.022;13.830;2024-01-15T05:43:00;9.77;;;3.90;;
84231;SDS011;74368;48.022;13.830;2024-01-15T05:45:26;6.07;;;3.35;;
84231;SDS011;74368;48.022;13.830;2024-01-15T05:47:51;9.50;;;4.18;;
84231;SDS011;74368;48.022;13.830;2024-01-15T05:50:17;5.95;;;3.30;;
84231;SDS011;74368;48.022;13.830;2024-01-15T05:52:43;5.00;;;3.15;;
84231;SDS011;74368;48.022;13.830;2024-01-15T05:55:08;7.18;;;3.97;;
84231;SDS011;74368;48.022;13.830;2024-01-15T05:57:34;7.50;;;3.83;;
84231;SDS011;74368;48.022;13.830;2024-01-15T06:00:00;8.77;;;3.47;;
84231;SDS011;74368;48.022;13.830;2024-01-15T06:02:25;7.78;;;4.10;;
84231;SDS011;74368;48.022;13.830;2024-01-15T06:04:50;8.50;;;3.83;;
84231;SDS011;74368;48.022;13.830;2024-01-15T06:07:15;8.00;;;4.22;;
84231;SDS011;74368;48.022;13.830;2024-01-15T06:09:41;7.43;;;3.78;;
84231;SDS011;74368;48.022;13.830;2024-01-15T06:12:07;8.60;;;3.97;;
84231;SDS011;74368;48.022;13.830;2024-01-15T06:14:32;5.78;;;3.40;;
84231;SDS011;74368;48.022;13.830;2024-01-15T06:16:58;10.00;;;4.55;;
84231;SDS011;74368;48.022;13.830;2024-01-15T06:19:23;8.13;;;3.85;;
84231;SDS011;74368;48.022;13.830;2024-01-15T06:21:48;5.97;;;3.53;;
84231;SDS011;74368;48.022;13.830;2024-01-15T06:24:14;8.23;;;3.75;;
84231;SDS011;74368;48.022;13.830;2024-01-15T06:26:40;6.65;;;4.03;;
84231;SDS011;74368;48.022;13.830;2024-01-15T06:29:05;9.10;;;4.28;;
84231;SDS011;74368;48.022;13.830;2024-01-15T06:31:30;8.85;;;4.32;;
84231;SDS011;74368;48.022;13.830;2024-01-15T06:33:56;9.75;;;4.35;;
84231;SDS011;74368;48.022;13.830;2024-01-15T06:36:21;8.48;;;4.10;;
84231;SDS011;74368;48.022;13.830;2024-01-15T06:38:46;8.60;;;4.72;;
84231;SDS011;74368;48.022;13.830;2024-01-15T06:41:12;6.93;;;4.32;;
84231;SDS011;74368;48.022;13.830;2024-01-15T06:43:37;6.78;;;4.25;;
84231;SDS011;74368;48.022;13.830;2024-01-15T06:46:02;8.98;;;5.13;;
84231;SDS011;74368;48.022;13.830;2024-01-15T06:48:28;9.23;;;4.30;;
84231;SDS011;74368;48.022;13.830;2024-01-15T06:50:53;8.80;;;4.43;;
84231;SDS011;74368;48.022;13.830;2024-01-15T06:53:19;10.30;;;4.63;;
84231;SDS011;74368;48.022;13.830;2024-01-15T06:55:44;9.95;;;5.18;;
84231;SDS011;74368;48.022;13.830;2024-01-15T06:58:09;11.10;;;4.07;;
84231;SDS011;74368;48.022;13.830;2024-01-15T07:00:35;8.05;;;3.90;;
84231;SDS011;74368;48.022;13.830;2024-01-15T07:03:00;7.03;;;3.83;;
84231;SDS011;74368;48.022;13.830;2024-01-15T07:05:25;7.47;;;3.92;;
84231;SDS011;74368;48.022;13.830;2024-01-15T07:07:51;8.40;;;4.13;;
84231;SDS011;74368;48.022;13.830;2024-01-15T07:10:16;7.80;;;4.05;;
84231;SDS011;74368;48.022;13.830;2024-01-15T07:12:42;7.40;;;3.78;;
84231;SDS011;74368;48.022;13.830;2024-01-15T07:15:08;9.05;;;4.03;;
84231;SDS011;74368;48.022;13.830;2024-01-15T07:17:34;7.80;;;4.15;;
84231;SDS011;74368;48.022;13.830;2024-01-15T07:19:59;8.27;;;3.85;;
84231;SDS011;74368;48.022;13.830;2024-01-15T07:22:25;7.90;;;4.05;;
84231;SDS011;74368;48.022;13.830;2024-01-15T07:24:50;8.18;;;4.38;;
84231;SDS011;74368;48.022;13.830;2024-01-15T07:27:15;7.35;;;3.78;;
84231;SDS011;74368;48.022;13.830;2024-01-15T07:29:41;8.38;;;4.03;;
84231;SDS011;74368;48.022;13.830;2024-01-15T07:32:07;8.50;;;3.47;;
84231;SDS011;74368;48.022;13.830;2024-01-15T07:34:33;5.43;;;3.30;;
84231;SDS011;74368;48.022;13.830;2024-01-15T07:36:58;7.82;;;3.70;;
84231;SDS011;74368;48.022;13.830;2024-01-15T07:39:24;11.38;;;3.80;;
84231;SDS011;74368;48.022;13.830;2024-01-15T07:41:50;7.50;;;3.95;;
84231;SDS011;74368;48.022;13.830;2024-01-15T07:44:16;8.77;;;4.32;;
84231;SDS011;74368;48.022;13.830;2024-01-15T07:46:44;8.52;;;4.32;;
84231;SDS011;74368;48.022;13.830;2024-01-15T07:49:10;8.55;;;3.97;;
84231;SDS011;74368;48.022;13.830;2024-01-15T07:51:36;8.55;;;4.00;;
84231;SDS011;74368;48.022;13.830;2024-01-15T07:54:01;12.65;;;4.47;;
84231;SDS011;74368;48.022;13.830;2024-01-15T07:56:27;7.95;;;3.97;;
84231;SDS011;74368;48.022;13.830;2024-01-15T07:58:52;6.90;;;3.83;;
84231;SDS011;74368;48.022;13.830;2024-01-15T08:01:17;9.82;;;3.72;;
84231;SDS011;74368;48.022;13.830;2024-01-15T08:03:43;9.00;;;3.85;;
84231;SDS011;74368;48.022;13.830;2024-01-15T08:06:08;7.63;;;4.13;;
84231;SDS011;74368;48.022;13.830;2024-01-15T08:08:34;7.68;;;3.65;;
84231;SDS011;74368;48.022;13.830;2024-01-15T08:11:00;7.35;;;3.90;;
84231;SDS011;74368;48.022;13.830;2024-01-15T08:13:26;6.88;;;3.63;;
84231;SDS011;74368;48.022;13.830;2024-01-15T08:15:55;7.07;;;3.75;;
84231;SDS011;74368;48.022;13.830;2024-01-15T08:18:21;8.20;;;3.75;;
84231;SDS011;74368;48.022;13.830;2024-01-15T08:20:46;5.65;;;3.17;;
84231;SDS011;74368;48.022;13.830;2024-01-15T08:23:12;7.50;;;4.18;;
84231;SDS011;74368;48.022;13.830;2024-01-15T08:25:37;5.80;;;3.47;;
84231;SDS011;74368;48.022;13.830;2024-01-15T08:28:02;11.32;;;4.38;;
84231;SDS011;74368;48.022;13.830;2024-01-15T08:30:28;6.68;;;3.80;;
84231;SDS011;74368;48.022;13.830;2024-01-15T08:32:53;7.55;;;4.20;;
84231;SDS011;74368;48.022;13.830;2024-01-15T08:35:19;8.20;;;3.80;;
84231;SDS011;74368;48.022;13.830;2024-01-15T08:37:48;8.10;;;4.20;;
84231;SDS011;74368;48.022;13.830;2024-01-15T08:40:14;6.90;;;4.15;;
84231;SDS011;74368;48.022;13.830;2024-01-15T08:42:40;8.90;;;4.85;;
84231;SDS011;74368;48.022;13.830;2024-01-15T08:45:06;6.78;;;3.45;;
84231;SDS011;74368;48.022;13.830;2024-01-15T08:47:31;8.30;;;4.03;;
84231;SDS011;74368;48.022;13.830;2024-01-15T08:49:57;9.02;;;4.38;;
84231;SDS011;74368;48.022;13.830;2024-01-15T08:52:23;9.43;;;4.38;;
84231;SDS011;74368;48.022;13.830;2024-01-15T08:54:48;8.07;;;4.25;;
84231;SDS011;74368;48.022;13.830;2024-01-15T08:57:14;5.07;;;3.50;;
84231;SDS011;74368;48.022;13.830;2024-01-15T08:59:39;5.82;;;3.30;;
84231;SDS011;74368;48.022;13.830;2024-01-15T09:02:06;6.05;;;3.80;;
84231;SDS011;74368;48.022;13.830;2024-01-15T09:04:32;8.63;;;3.88;;
84231;SDS011;74368;48.022;13.830;2024-01-15T09:06:57;7.25;;;3.60;;
84231;SDS011;74368;48.022;13.830;2024-01-15T09:09:23;7.07;;;3.67;;
84231;SDS011;74368;48.022;13.830;2024-01-15T09:11:48;7.07;;;3.63;;
84231;SDS011;74368;48.022;13.830;2024-01-15T09:14:13;8.27;;;4.30;;
84231;SDS011;74368;48.022;13.830;2024-01-15T09:16:39;8.80;;;4.43;;
84231;SDS011;74368;48.022;13.830;2024-01-15T09:19:06;7.95;;;4.25;;
84231;SDS011;74368;48.022;13.830;2024-01-15T09:21:31;6.10;;;3.67;;
84231;SDS011;74368;48.022;13.830;2024-01-15T09:23:56;6.50;;;3.92;;
84231;SDS011;74368;48.022;13.830;2024-01-15T09:26:22;8.23;;;4.10;;
84231;SDS011;74368;48.022;13.830;2024-01-15T09:28:47;6.70;;;3.63;;
84231;SDS011;74368;48.022;13.830;2024-01-15T09:31:12;4.40;;;2.85;;
84231;SDS011;74368;48.022;13.830;2024-01-15T09:33:38;6.22;;;3.33;;
84231;SDS011;74368;48.022;13.830;2024-01-15T09:36:03;5.47;;;3.05;;
84231;SDS011;74368;48.022;13.830;2024-01-15T09:38:32;5.70;;;3.17;;
84231;SDS011;74368;48.022;13.830;2024-01-15T09:40:57;5.70;;;3.15;;
84231;SDS011;74368;48.022;13.830;2024-01-15T09:43:23;8.90;;;3.63;;
84231;SDS011;74368;48.022;13.830;2024-01-15T09:45:49;5.30;;;2.97;;
84231;SDS011;74368;48.022;13.830;2024-01-15T09:48:14;5.43;;;2.88;;
84231;SDS011;74368;48.022;13.830;2024-01-15T09:50:41;8.63;;;4.30;;
84231;SDS011;74368;48.022;13.830;2024-01-15T09:53:06;6.78;;;3.40;;
84231;SDS011;74368;48.022;13.830;2024-01-15T09:55:32;7.75;;;3.20;;
84231;SDS011;74368;48.022;13.830;2024-01-15T09:58:00;5.85;;;3.50;;
84231;SDS011;74368;48.022;13.830;2024-01-15T10:00:27;6.03;;;3.30;;
84231;SDS011;74368;48.022;13.830;2024-01-15T10:02:54;6.90;;;3.17;;
84231;SDS011;74368;48.022;13.830;2024-01-15T10:05:21;5.32;;;3.55;;
84231;SDS011;74368;48.022;13.830;2024-01-15T10:07:46;8.48;;;4.82;;
84231;SDS011;74368;48.022;13.830;2024-01-15T10:10:13;8.43;;;3.30;;
84231;SDS011;74368;48.022;13.830;2024-01-15T10:12:39;5.57;;;3.38;;
84231;SDS011;74368;48.022;13.830;2024-01-15T10:15:05;4.13;;;2.92;;
84231;SDS011;74368;48.022;13.830;2024-01-15T10:17:30;5.97;;;3.53;;
84231;SDS011;74368;48.022;13.830;2024-01-15T10:19:56;5.30;;;2.90;;
84231;SDS011;74368;48.022;13.830;2024-01-15T10:22:22;4.70;;;2.50;;
84231;SDS011;74368;48.022;13.830;2024-01-15T10:24:48;4.57;;;2.50;;
84231;SDS011;74368;48.022;13.830;2024-01-15T10:27:14;6.03;;;3.00;;
84231;SDS011;74368;48.022;13.830;2024-01-15T10:29:40;7.30;;;2.80;;
84231;SDS011;74368;48.022;13.830;2024-01-15T10:32:07;5.32;;;2.55;;
84231;SDS011;74368;48.022;13.830;2024-01-15T10:34:39;5.90;;;2.63;;
84231;SDS011;74368;48.022;13.830;2024-01-15T10:37:07;4.78;;;2.70;;
84231;SDS011;74368;48.022;13.830;2024-01-15T10:39:32;4.22;;;2.35;;
84231;SDS011;74368;48.022;13.830;2024-01-15T10:41:58;5.97;;;2.50;;
84231;SDS011;74368;48.022;13.830;2024-01-15T10:44:23;4.55;;;2.72;;
84231;SDS011;74368;48.022;13.830;2024-01-15T10:46:50;3.88;;;2.03;;
84231;SDS011;74368;48.022;13.830;2024-01-15T10:49:15;3.53;;;2.17;;
84231;SDS011;74368;48.022;13.830;2024-01-15T10:51:41;5.68;;;3.53;;
84231;SDS011;74368;48.022;13.830;2024-01-15T10:54:07;4.50;;;2.85;;
84231;SDS011;74368;48.022;13.830;2024-01-15T10:56:36;3.63;;;2.10;;
84231;SDS011;74368;48.022;13.830;2024-01-15T10:59:02;3.80;;;1.90;;
84231;SDS011;74368;48.022;13.830;2024-01-15T11:01:28;5.50;;;3.00;;
84231;SDS011;74368;48.022;13.830;2024-01-15T11:03:55;4.22;;;2.28;;
84231;SDS011;74368;48.022;13.830;2024-01-15T11:06:22;4.90;;;2.70;;
84231;SDS011;74368;48.022;13.830;2024-01-15T11:08:49;5.47;;;2.30;;
84231;SDS011;74368;48.022;13.830;2024-01-15T11:11:15;3.50;;;2.33;;
84231;SDS011;74368;48.022;13.830;2024-01-15T11:13:42;3.03;;;2.00;;
84231;SDS011;74368;48.022;13.830;2024-01-15T11:16:12;5.03;;;2.30;;
84231;SDS011;74368;48.022;13.830;2024-01-15T11:23:50;4.95;;;2.58;;
84231;SDS011;74368;48.022;13.830;2024-01-15T11:31:56;3.55;;;2.15;;
84231;SDS011;74368;48.022;13.830;2024-01-15T11:37:22;3.50;;;2.00;;
84231;SDS011;74368;48.022;13.830;2024-01-15T11:39:50;5.90;;;2.83;;
84231;SDS011;74368;48.022;13.830;2024-01-15T11:42:16;4.55;;;2.45;;
84231;SDS011;74368;48.022;13.830;2024-01-15T11:44:43;4.43;;;2.22;;
84231;SDS011;74368;48.022;13.830;2024-01-15T11:47:10;3.95;;;2.40;;
84231;SDS011;74368;48.022;13.830;2024-01-15T11:52:26;5.15;;;2.80;;
84231;SDS011;74368;48.022;13.830;2024-01-15T11:57:46;3.80;;;2.17;;
84231;SDS011;74368;48.022;13.830;2024-01-15T12:00:14;3.50;;;2.30;;
84231;SDS011;74368;48.022;13.830;2024-01-15T12:02:43;3.67;;;2.20;;
84231;SDS011;74368;48.022;13.830;2024-01-15T12:07:40;6.50;;;2.47;;
84231;SDS011;74368;48.022;13.830;2024-01-15T12:10:12;4.75;;;2.40;;
84231;SDS011;74368;48.022;13.830;2024-01-15T12:12:45;5.15;;;2.60;;
84231;SDS011;74368;48.022;13.830;2024-01-15T12:15:18;4.32;;;2.38;;
84231;SDS011;74368;48.022;13.830;2024-01-15T12:17:45;3.08;;;2.25;;
84231;SDS011;74368;48.022;13.830;2024-01-15T12:20:10;4.00;;;2.60;;
84231;SDS011;74368;48.022;13.830;2024-01-15T12:22:37;5.18;;;2.40;;
84231;SDS011;74368;48.022;13.830;2024-01-15T12:25:03;3.15;;;2.00;;
84231;SDS011;74368;48.022;13.830;2024-01-15T12:27:28;3.65;;;2.15;;
84231;SDS011;74368;48.022;13.830;2024-01-15T12:29:54;3.63;;;2.20;;
84231;SDS011;74368;48.022;13.830;2024-01-15T12:32:19;3.45;;;1.73;;
84231;SDS011;74368;48.022;13.830;2024-01-15T12:34:46;3.63;;;2.40;;
84231;SDS011;74368;48.022;13.830;2024-01-15T12:37:11;3.80;;;2.33;;
84231;SDS011;74368;48.022;13.830;2024-01-15T12:39:37;7.05;;;2.50;;
84231;SDS011;74368;48.022;13.830;2024-01-15T12:42:02;4.00;;;2.53;;
84231;SDS011;74368;48.022;13.830;2024-01-15T12:44:29;4.18;;;2.08;;
84231;SDS011;74368;48.022;13.830;2024-01-15T12:46:54;7.13;;;2.30;;
84231;SDS011;74368;48.022;13.830;2024-01-15T12:49:20;4.43;;;2.20;;
84231;SDS011;74368;48.022;13.830;2024-01-15T12:51:52;4.57;;;2.13;;
84231;SDS011;74368;48.022;13.830;2024-01-15T12:54:18;4.70;;;2.33;;
84231;SDS011;74368;48.022;13.830;2024-01-15T12:56:44;5.53;;;2.40;;
84231;SDS011;74368;48.022;13.830;2024-01-15T12:59:09;5.00;;;2.58;;
84231;SDS011;74368;48.022;13.830;2024-01-15T13:01:34;4.97;;;2.83;;
84231;SDS011;74368;48.022;13.830;2024-01-15T13:04:01;3.22;;;2.00;;
84231;SDS011;74368;48.022;13.830;2024-01-15T13:06:26;5.45;;;2.67;;
84231;SDS011;74368;48.022;13.830;2024-01-15T13:08:51;4.88;;;2.70;;
84231;SDS011;74368;48.022;13.830;2024-01-15T13:11:16;5.45;;;2.78;;
84231;SDS011;74368;48.022;13.830;2024-01-15T13:13:42;3.95;;;2.42;;
84231;SDS011;74368;48.022;13.830;2024-01-15T13:16:08;3.20;;;2.10;;
84231;SDS011;74368;48.022;13.830;2024-01-15T13:18:34;4.50;;;3.05;;
84231;SDS011;74368;48.022;13.830;2024-01-15T13:20:59;7.82;;;2.63;;
84231;SDS011;74368;48.022;13.830;2024-01-15T13:23:25;5.22;;;2.80;;
84231;SDS011;74368;48.022;13.830;2024-01-15T13:25:50;5.25;;;2.33;;
84231;SDS011;74368;48.022;13.830;2024-01-15T13:28:16;3.65;;;2.50;;
84231;SDS011;74368;48.022;13.830;2024-01-15T13:30:41;7.70;;;2.75;;
84231;SDS011;74368;48.022;13.830;2024-01-15T13:33:07;4.78;;;2.67;;
84231;SDS011;74368;48.022;13.830;2024-01-15T13:35:33;4.90;;;2.35;;
84231;SDS011;74368;48.022;13.830;2024-01-15T13:38:00;3.50;;;2.55;;
84231;SDS011;74368;48.022;13.830;2024-01-15T13:40:26;5.95;;;2.55;;
84231;SDS011;74368;48.022;13.830;2024-01-15T13:42:52;4.90;;;2.58;;
84231;SDS011;74368;48.022;13.830;2024-01-15T13:45:17;4.50;;;2.10;;
84231;SDS011;74368;48.022;13.830;2024-01-15T13:47:43;3.22;;;1.98;;
84231;SDS011;74368;48.022;13.830;2024-01-15T13:50:09;2.97;;;1.88;;
84231;SDS011;74368;48.022;13.830;2024-01-15T13:52:35;3.50;;;2.20;;
84231;SDS011;74368;48.022;13.830;2024-01-15T13:55:00;5.30;;;2.70;;
84231;SDS011;74368;48.022;13.830;2024-01-15T13:57:26;4.07;;;2.53;;
84231;SDS011;74368;48.022;13.830;2024-01-15T13:59:52;3.80;;;2.53;;
84231;SDS011;74368;48.022;13.830;2024-01-15T14:02:17;3.45;;;2.10;;
84231;SDS011;74368;48.022;13.830;2024-01-15T14:04:42;4.55;;;2.30;;
84231;SDS011;74368;48.022;13.830;2024-01-15T14:07:08;4.68;;;2.90;;
84231;SDS011;74368;48.022;13.830;2024-01-15T14:09:33;3.95;;;2.72;;
84231;SDS011;74368;48.022;13.830;2024-01-15T14:11:59;4.88;;;2.42;;
84231;SDS011;74368;48.022;13.830;2024-01-15T14:14:27;4.15;;;2.00;;
84231;SDS011;74368;48.022;13.830;2024-01-15T14:16:53;3.92;;;2.30;;
84231;SDS011;74368;48.022;13.830;2024-01-15T14:19:18;3.65;;;2.55;;
84231;SDS011;74368;48.022;13.830;2024-01-15T14:21:43;4.20;;;2.28;;
84231;SDS011;74368;48.022;13.830;2024-01-15T14:24:09;4.38;;;2.50;;
84231;SDS011;74368;48.022;13.830;2024-01-15T14:26:34;5.35;;;2.50;;
84231;SDS011;74368;48.022;13.830;2024-01-15T14:28:59;4.10;;;2.60;;
84231;SDS011;74368;48.022;13.830;2024-01-15T14:31:25;3.28;;;2.20;;
84231;SDS011;74368;48.022;13.830;2024-01-15T14:33:51;6.00;;;3.22;;
84231;SDS011;74368;48.022;13.830;2024-01-15T14:36:17;5.80;;;3.40;;
84231;SDS011;74368;48.022;13.830;2024-01-15T14:38:43;4.97;;;2.88;;
84231;SDS011;74368;48.022;13.830;2024-01-15T14:41:08;4.28;;;2.50;;
84231;SDS011;74368;48.022;13.830;2024-01-15T14:43:33;3.33;;;2.25;;
84231;SDS011;74368;48.022;13.830;2024-01-15T14:45:58;2.67;;;2.20;;
84231;SDS011;74368;48.022;13.830;2024-01-15T14:48:24;2.90;;;1.90;;
84231;SDS011;74368;48.022;13.830;2024-01-15T14:50:50;2.90;;;2.10;;
84231;SDS011;74368;48.022;13.830;2024-01-15T14:53:15;2.97;;;1.90;;
84231;SDS011;74368;48.022;13.830;2024-01-15T14:55:42;3.15;;;1.95;;
84231;SDS011;74368;48.022;13.830;2024-01-15T14:58:07;3.47;;;1.92;;
84231;SDS011;74368;48.022;13.830;2024-01-15T15:00:32;3.75;;;1.90;;
84231;SDS011;74368;48.022;13.830;2024-01-15T15:02:58;2.85;;;1.83;;
84231;SDS011;74368;48.022;13.830;2024-01-15T15:05:24;2.33;;;1.75;;
84231;SDS011;74368;48.022;13.830;2024-01-15T15:07:50;4.35;;;2.30;;
84231;SDS011;74368;48.022;13.830;2024-01-15T15:10:15;3.38;;;1.70;;
84231;SDS011;74368;48.022;13.830;2024-01-15T15:12:41;3.03;;;2.00;;
84231;SDS011;74368;48.022;13.830;2024-01-15T15:15:06;4.30;;;2.40;;
84231;SDS011;74368;48.022;13.830;2024-01-15T15:17:32;2.10;;;1.45;;
84231;SDS011;74368;48.022;13.830;2024-01-15T15:19:59;3.80;;;1.65;;
84231;SDS011;74368;48.022;13.830;2024-01-15T15:22:24;4.10;;;2.28;;
84231;SDS011;74368;48.022;13.830;2024-01-15T15:24:50;2.97;;;1.83;;
84231;SDS011;74368;48.022;13.830;2024-01-15T15:27:15;3.15;;;1.75;;
84231;SDS011;74368;48.022;13.830;2024-01-15T15:29:40;1.95;;;1.75;;
84231;SDS011;74368;48.022;13.830;2024-01-15T15:32:06;3.33;;;2.10;;
84231;SDS011;74368;48.022;13.830;2024-01-15T15:34:31;3.38;;;1.80;;
84231;SDS011;74368;48.022;13.830;2024-01-15T15:36:56;3.25;;;1.80;;
84231;SDS011;74368;48.022;13.830;2024-01-15T15:39:22;2.88;;;1.95;;
84231;SDS011;74368;48.022;13.830;2024-01-15T15:41:47;4.30;;;1.60;;
84231;SDS011;74368;48.022;13.830;2024-01-15T15:44:14;3.08;;;1.80;;
84231;SDS011;74368;48.022;13.830;2024-01-15T15:46:41;2.33;;;1.60;;
84231;SDS011;74368;48.022;13.830;2024-01-15T15:49:07;2.50;;;1.70;;
84231;SDS011;74368;48.022;13.830;2024-01-15T15:51:33;2.20;;;1.70;;
84231;SDS011;74368;48.022;13.830;2024-01-15T15:53:58;3.25;;;2.00;;
84231;SDS011;74368;48.022;13.830;2024-01-15T15:56:24;2.60;;;1.70;;
84231;SDS011;74368;48.022;13.830;2024-01-15T15:58:50;3.80;;;1.70;;
84231;SDS011;74368;48.022;13.830;2024-01-15T16:01:16;2.60;;;1.65;;
84231;SDS011;74368;48.022;13.830;2024-01-15T16:03:41;2.90;;;1.75;;
84231;SDS011;74368;48.022;13.830;2024-01-15T16:06:07;4.57;;;2.25;;
84231;SDS011;74368;48.022;13.830;2024-01-15T16:08:32;4.03;;;2.20;;
84231;SDS011;74368;48.022;13.830;2024-01-15T16:10:58;7.00;;;2.38;;